Time;durP1;ratioP1;P1;durP2;ratioP2;P2;SDS_P1;SDS_P2;PMS_P1;PMS_P2;Temp;Humidity;BMP_temperature;BMP_pressure;BME280_temperature;BME280_humidity;BME280_pressure;Samples;Min_cycle;Max_cycle;Signal;HPM_P1;HPM_P2
2021/11/24 00:02:09;;;;;;;2.95;2.20;;;10.10;75.70;;;;;;5053118;28;20078;-79
2021/11/24 00:04:34;;;;;;;4.07;2.45;;;10.00;75.70;;;;;;5053083;28;20400;-79
2021/11/24 00:07:00;;;;;;;3.08;2.35;;;10.00;75.70;;;;;;5053160;28;20033;-78
2021/11/24 00:09:26;;;;;;;3.47;2.53;;;10.00;75.80;;;;;;5053310;28;20025;-80
2021/11/24 00:11:52;;;;;;;3.20;2.50;;;10.10;75.80;;;;;;5053035;28;20389;-78
2021/11/24 00:14:17;;;;;;;3.08;2.35;;;10.00;75.70;;;;;;5053044;28;20029;-79
2021/11/24 00:16:43;;;;;;;2.95;2.42;;;10.00;75.70;;;;;;5053179;28;20040;-80
2021/11/24 00:19:09;;;;;;;2.83;2.28;;;10.10;75.80;;;;;;5054915;28;20037;-81
2021/11/24 00:21:34;;;;;;;2.22;2.03;;;10.00;75.70;;;;;;5052962;28;20503;-78
2021/11/24 00:24:00;;;;;;;3.15;2.33;;;10.00;75.80;;;;;;5052685;28;20507;-79
2021/11/24 00:26:26;;;;;;;2.90;2.40;;;10.00;75.70;;;;;;5052890;28;20037;-81
2021/11/24 00:28:51;;;;;;;3.42;2.65;;;10.00;75.70;;;;;;5052385;28;20108;-83
2021/11/24 00:31:17;;;;;;;2.88;2.58;;;10.00;75.70;;;;;;5052200;28;20389;-81
2021/11/24 00:33:43;;;;;;;2.28;2.08;;;10.00;75.70;;;;;;5052469;28;20044;-82
2021/11/24 00:36:09;;;;;;;2.65;2.30;;;10.00;75.80;;;;;;5052177;28;20084;-78
2021/11/24 00:38:35;;;;;;;3.03;2.35;;;10.00;75.80;;;;;;5052610;28;20397;-79
2021/11/24 00:41:02;;;;;;;3.33;2.45;;;10.00;75.80;;;;;;5052261;28;20057;-79
2021/11/24 00:43:28;;;;;;;3.88;2.78;;;10.00;75.80;;;;;;5052284;28;20445;-80
2021/11/24 00:45:54;;;;;;;2.97;2.40;;;10.00;75.80;;;;;;5052846;28;20100;-79
2021/11/24 00:48:21;;;;;;;3.63;2.30;;;10.00;75.80;;;;;;5054049;28;20031;-79
2021/11/24 00:50:47;;;;;;;3.40;2.42;;;10.00;75.80;;;;;;5052355;28;20039;-79
2021/11/24 00:53:13;;;;;;;3.67;2.80;;;10.00;75.80;;;;;;5053390;28;20079;-79
2021/11/24 00:55:39;;;;;;;4.15;2.72;;;10.00;75.80;;;;;;5053741;28;20032;-80
2021/11/24 00:58:05;;;;;;;3.55;2.60;;;10.00;75.80;;;;;;5053229;28;20037;-80
2021/11/24 01:00:31;;;;;;;2.88;2.35;;;10.00;75.80;;;;;;5052300;28;20040;-79
2021/11/24 01:02:56;;;;;;;2.97;2.45;;;10.00;75.80;;;;;;5052595;28;20493;-80
2021/11/24 01:05:22;;;;;;;3.53;2.80;;;10.00;75.80;;;;;;5053006;28;20098;-79
2021/11/24 01:07:48;;;;;;;3.40;2.60;;;10.00;75.80;;;;;;5053788;28;20470;-80
2021/11/24 01:10:14;;;;;;;3.30;2.67;;;10.00;75.80;;;;;;5052284;28;20101;-84
2021/11/24 01:12:42;;;;;;;3.80;2.60;;;10.00;75.80;;;;;;5053130;28;20022;-79
2021/11/24 01:15:09;;;;;;;3.53;2.63;;;9.90;75.80;;;;;;5052212;28;20373;-80
2021/11/24 01:17:35;;;;;;;3.30;2.55;;;9.90;75.80;;;;;;5052313;28;20029;-78
2021/11/24 01:20:02;;;;;;;3.40;2.45;;;9.90;75.80;;;;;;5053348;28;20389;-78
2021/11/24 01:22:28;;;;;;;3.70;2.78;;;9.90;75.80;;;;;;5052122;28;20112;-78
2021/11/24 01:24:53;;;;;;;3.03;2.55;;;9.90;75.80;;;;;;5053135;28;20441;-79
2021/11/24 01:27:19;;;;;;;3.78;2.67;;;9.90;75.80;;;;;;5052440;28;20393;-78
2021/11/24 01:29:45;;;;;;;2.83;2.30;;;9.90;75.80;;;;;;5052884;28;20116;-79
2021/11/24 01:32:11;;;;;;;3.45;2.58;;;9.90;75.70;;;;;;5052334;28;20533;-79
2021/11/24 01:34:37;;;;;;;3.15;2.55;;;9.90;75.80;;;;;;5051938;28;20061;-78
2021/11/24 01:37:04;;;;;;;3.88;2.80;;;9.90;75.80;;;;;;5053164;28;20057;-79
2021/11/24 01:39:29;;;;;;;3.55;2.80;;;9.90;75.80;;;;;;5052197;28;20036;-81
2021/11/24 01:41:56;;;;;;;3.45;2.63;;;9.90;75.80;;;;;;5051875;28;20390;-79
2021/11/24 01:44:26;;;;;;;3.13;2.60;;;9.90;75.80;;;;;;5052140;28;20064;-79
2021/11/24 01:46:57;;;;;;;3.35;2.72;;;9.90;75.80;;;;;;5052307;28;20044;-80
2021/11/24 01:49:24;;;;;;;3.25;2.50;;;9.90;75.80;;;;;;5052178;28;20021;-79
2021/11/24 01:51:50;;;;;;;3.03;2.50;;;9.90;75.80;;;;;;5057190;28;20024;-78
2021/11/24 01:54:17;;;;;;;4.15;2.83;;;9.90;75.80;;;;;;5055924;28;20074;-79
2021/11/24 01:56:43;;;;;;;3.20;2.47;;;9.80;75.80;;;;;;5055744;28;20384;-78
2021/11/24 01:59:11;;;;;;;2.85;2.35;;;9.80;75.80;;;;;;5055480;28;20473;-79
2021/11/24 02:01:39;;;;;;;3.30;2.40;;;9.90;75.80;;;;;;5055384;28;20025;-80
2021/11/24 02:04:05;;;;;;;3.03;2.42;;;9.80;75.80;;;;;;5038866;28;20509;-79
2021/11/24 02:06:31;;;;;;;3.92;2.80;;;9.80;75.80;;;;;;5055806;28;20041;-79
2021/11/24 02:08:57;;;;;;;3.13;2.28;;;9.80;75.80;;;;;;5055316;28;20017;-81
2021/11/24 02:11:23;;;;;;;3.17;2.53;;;9.80;75.80;;;;;;5055877;28;20033;-80
2021/11/24 02:13:49;;;;;;;3.15;2.45;;;9.80;75.80;;;;;;5055209;28;20576;-81
2021/11/24 02:16:14;;;;;;;2.90;2.40;;;9.80;75.80;;;;;;5055470;28;20032;-78
2021/11/24 02:18:40;;;;;;;3.72;2.88;;;9.80;75.80;;;;;;5055083;28;20033;-78
2021/11/24 02:21:06;;;;;;;3.15;2.40;;;9.80;75.80;;;;;;5055189;28;20044;-78
2021/11/24 02:23:32;;;;;;;3.17;2.50;;;9.80;75.80;;;;;;5056527;28;20044;-78
2021/11/24 02:25:57;;;;;;;2.42;2.22;;;9.80;75.80;;;;;;5056333;28;20033;-78
2021/11/24 02:28:23;;;;;;;2.90;2.40;;;9.80;75.80;;;;;;5054912;28;20075;-79
2021/11/24 02:30:50;;;;;;;3.78;2.80;;;9.80;75.80;;;;;;5055738;28;20056;-78
2021/11/24 02:33:16;;;;;;;3.45;2.90;;;9.70;75.80;;;;;;5038232;28;20029;-79
2021/11/24 02:35:43;;;;;;;3.42;2.75;;;9.80;75.90;;;;;;5054948;28;20025;-78
2021/11/24 02:38:10;;;;;;;3.65;2.60;;;9.70;75.80;;;;;;5055947;28;20033;-78
2021/11/24 02:40:36;;;;;;;3.65;2.60;;;9.80;75.90;;;;;;5054892;28;20064;-77
2021/11/24 02:43:04;;;;;;;3.45;2.67;;;9.70;75.80;;;;;;5055582;28;20114;-80
2021/11/24 02:45:30;;;;;;;3.00;2.63;;;9.70;75.90;;;;;;5056237;28;20048;-79
2021/11/24 02:47:56;;;;;;;3.67;2.58;;;9.80;75.90;;;;;;5071673;28;20453;-78
2021/11/24 02:50:22;;;;;;;2.65;2.22;;;9.70;75.90;;;;;;5054734;28;20159;-78
2021/11/24 02:52:47;;;;;;;2.85;2.45;;;9.70;75.90;;;;;;5021690;28;20029;-79
2021/11/24 02:55:14;;;;;;;3.45;2.58;;;9.70;76.00;;;;;;5054624;28;20462;-79
2021/11/24 02:57:43;;;;;;;3.60;2.55;;;9.70;75.90;;;;;;5054700;28;20043;-78
2021/11/24 03:00:24;;;;;;;3.30;2.70;;;9.70;76.00;;;;;;5071543;28;20033;-79
2021/11/24 03:02:50;;;;;;;3.20;2.50;;;9.70;76.00;;;;;;5037115;28;20029;-78
2021/11/24 03:05:22;;;;;;;2.80;2.45;;;9.70;75.90;;;;;;5054495;28;20382;-78
2021/11/24 03:07:48;;;;;;;3.10;2.60;;;9.60;75.90;;;;;;5053752;28;20033;-79
2021/11/24 03:10:15;;;;;;;2.53;2.20;;;9.60;75.90;;;;;;5055431;28;20035;-79
2021/11/24 03:12:40;;;;;;;2.75;2.45;;;9.60;75.90;;;;;;5054379;28;20087;-79
2021/11/24 03:15:07;;;;;;;3.75;2.97;;;9.60;75.90;;;;;;5054117;28;20405;-79
2021/11/24 03:17:33;;;;;;;2.55;2.33;;;9.60;75.90;;;;;;5055403;28;20483;-80
2021/11/24 03:19:59;;;;;;;2.70;2.35;;;9.60;76.30;;;;;;5055147;28;20048;-79
2021/11/24 03:22:26;;;;;;;2.95;2.35;;;9.60;75.90;;;;;;5054767;28;20033;-79
2021/11/24 03:24:57;;;;;;;3.15;2.45;;;9.60;75.90;;;;;;5053814;28;20029;-78
2021/11/24 03:27:24;;;;;;;3.53;2.80;;;9.60;75.90;;;;;;5054312;28;20037;-79
2021/11/24 03:29:50;;;;;;;3.35;2.55;;;9.60;75.90;;;;;;5054017;28;20036;-78
2021/11/24 03:32:16;;;;;;;3.08;2.60;;;9.60;75.90;;;;;;5037134;28;20029;-79
2021/11/24 03:34:42;;;;;;;3.33;2.63;;;9.60;75.90;;;;;;5053788;28;20417;-78
2021/11/24 03:37:07;;;;;;;2.88;2.42;;;9.50;75.90;;;;;;5053449;28;20045;-78
2021/11/24 03:39:33;;;;;;;2.45;2.25;;;9.50;75.90;;;;;;5053333;28;20036;-78
2021/11/24 03:41:59;;;;;;;3.63;2.60;;;9.50;75.90;;;;;;5053647;28;20483;-79
2021/11/24 03:44:25;;;;;;;3.65;2.60;;;9.50;75.90;;;;;;5054831;28;20033;-80
2021/11/24 03:46:50;;;;;;;3.50;2.90;;;9.50;75.90;;;;;;5053347;28;20033;-78
2021/11/24 03:49:16;;;;;;;3.80;2.72;;;9.50;75.90;;;;;;5053908;28;20033;-79
2021/11/24 03:51:42;;;;;;;4.13;2.70;;;9.50;75.90;;;;;;5054036;28;20032;-79
2021/11/24 03:54:08;;;;;;;3.63;2.88;;;9.50;75.90;;;;;;5053906;28;20029;-79
2021/11/24 03:56:33;;;;;;;3.80;2.70;;;9.40;75.80;;;;;;5053101;28;20041;-79
2021/11/24 03:58:59;;;;;;;3.92;2.90;;;9.40;75.90;;;;;;5053796;28;20029;-81
2021/11/24 04:01:25;;;;;;;3.92;2.85;;;9.40;75.90;;;;;;5036330;28;20044;-79
2021/11/24 04:03:50;;;;;;;3.47;2.60;;;9.40;75.90;;;;;;5053448;28;20123;-79
2021/11/24 04:06:16;;;;;;;3.90;2.83;;;9.40;75.90;;;;;;5053300;28;20035;-80
2021/11/24 04:08:42;;;;;;;4.03;3.03;;;9.40;75.90;;;;;;5053010;28;20138;-80
2021/11/24 04:11:08;;;;;;;3.60;2.95;;;9.40;75.90;;;;;;5052982;28;20021;-82
2021/11/24 04:13:33;;;;;;;4.43;3.33;;;9.40;75.90;;;;;;5052237;28;20135;-78
2021/11/24 04:16:00;;;;;;;3.17;2.55;;;9.40;75.90;;;;;;5036646;28;20028;-79
2021/11/24 04:18:25;;;;;;;3.72;2.80;;;9.40;75.90;;;;;;5053305;28;20033;-80
2021/11/24 04:20:55;;;;;;;3.75;2.83;;;9.30;75.90;;;;;;5053786;28;20120;-79
2021/11/24 04:23:21;;;;;;;5.50;3.05;;;9.30;75.90;;;;;;5052900;28;20044;-78
2021/11/24 04:25:47;;;;;;;4.05;2.83;;;9.30;75.90;;;;;;5053094;28;20377;-78
2021/11/24 04:28:13;;;;;;;3.58;2.90;;;9.30;75.90;;;;;;5069387;28;20036;-79
2021/11/24 04:30:38;;;;;;;4.18;2.80;;;9.30;75.90;;;;;;5052656;28;20031;-79
2021/11/24 04:33:04;;;;;;;4.15;2.97;;;9.30;75.90;;;;;;5053072;28;20040;-78
2021/11/24 04:35:30;;;;;;;3.75;2.85;;;9.30;75.90;;;;;;5035912;28;20462;-79
2021/11/24 04:37:56;;;;;;;3.83;2.72;;;9.30;75.90;;;;;;5052579;28;20149;-81
2021/11/24 04:40:22;;;;;;;4.43;2.92;;;9.20;75.90;;;;;;5052315;28;20040;-78
2021/11/24 04:42:49;;;;;;;4.85;3.33;;;9.30;75.90;;;;;;5052547;28;20032;-79
2021/11/24 04:45:16;;;;;;;3.78;3.00;;;9.30;75.90;;;;;;5052576;28;20133;-78
2021/11/24 04:47:41;;;;;;;4.13;2.97;;;9.20;75.90;;;;;;5053673;28;20083;-78
2021/11/24 04:50:07;;;;;;;4.20;3.13;;;9.20;75.90;;;;;;5035894;28;20037;-78
2021/11/24 04:52:35;;;;;;;3.78;2.92;;;9.20;75.90;;;;;;5052464;28;20542;-79
2021/11/24 04:55:00;;;;;;;4.47;3.05;;;9.20;75.90;;;;;;5053405;28;20120;-79
2021/11/24 04:57:26;;;;;;;4.65;3.28;;;9.20;75.90;;;;;;5052678;28;20075;-79
2021/11/24 04:59:52;;;;;;;3.38;2.95;;;9.20;75.90;;;;;;5054237;28;20452;-78
2021/11/24 05:02:18;;;;;;;3.60;2.97;;;9.20;75.90;;;;;;5052327;28;20056;-79
2021/11/24 05:04:44;;;;;;;4.38;3.35;;;9.20;75.90;;;;;;5053624;28;20059;-78
2021/11/24 05:07:10;;;;;;;3.97;3.10;;;9.20;75.90;;;;;;5051887;28;20458;-80
2021/11/24 05:09:36;;;;;;;4.72;3.40;;;9.20;76.00;;;;;;5052275;28;20048;-79
2021/11/24 05:12:04;;;;;;;3.78;3.00;;;9.10;75.90;;;;;;5019444;28;20485;-79
2021/11/24 05:14:34;;;;;;;4.03;3.00;;;9.20;76.00;;;;;;5052453;28;20118;-79
2021/11/24 05:17:03;;;;;;;4.03;2.97;;;9.10;75.90;;;;;;5052664;28;20029;-78
2021/11/24 05:19:32;;;;;;;4.32;3.13;;;9.10;75.90;;;;;;5052004;28;20405;-77
2021/11/24 05:21:58;;;;;;;3.97;3.30;;;9.10;75.90;;;;;;5051992;28;20029;-77
2021/11/24 05:24:24;;;;;;;4.38;3.17;;;9.10;76.00;;;;;;5051650;28;20059;-78
2021/11/24 05:26:49;;;;;;;4.47;3.45;;;9.10;76.00;;;;;;5057776;28;20061;-76
2021/11/24 05:29:15;;;;;;;4.40;3.03;;;9.10;76.00;;;;;;5055679;28;20028;-78
2021/11/24 05:31:41;;;;;;;4.50;3.50;;;9.10;76.00;;;;;;5056743;28;20064;-79
2021/11/24 05:34:07;;;;;;;4.60;3.38;;;9.10;76.00;;;;;;5055587;28;20059;-77
2021/11/24 05:36:35;;;;;;;3.72;2.97;;;9.10;76.00;;;;;;5038805;28;20080;-77
2021/11/24 05:39:07;;;;;;;3.83;2.97;;;9.10;76.00;;;;;;5055752;28;20033;-78
2021/11/24 05:41:37;;;;;;;4.30;3.30;;;9.10;76.00;;;;;;5057156;28;20048;-77
2021/11/24 05:44:16;;;;;;;4.50;3.40;;;9.10;76.00;;;;;;5057233;28;20041;-77
2021/11/24 05:46:48;;;;;;;4.47;3.08;;;9.10;76.00;;;;;;5057813;28;20060;-78
2021/11/24 05:49:15;;;;;;;4.18;3.22;;;9.10;76.00;;;;;;5058031;28;20492;-77
2021/11/24 05:51:41;;;;;;;4.07;3.10;;;9.10;76.10;;;;;;5057035;28;20021;-79
2021/11/24 05:54:07;;;;;;;4.03;3.08;;;9.00;76.10;;;;;;5055971;28;20037;-79
2021/11/24 05:56:36;;;;;;;3.85;3.03;;;9.10;76.10;;;;;;5056935;28;20167;-79
2021/11/24 05:59:03;;;;;;;4.63;3.20;;;9.10;76.10;;;;;;5056404;28;20044;-77
2021/11/24 06:01:29;;;;;;;4.63;3.25;;;9.10;76.10;;;;;;5074669;28;20048;-77
2021/11/24 06:03:55;;;;;;;4.70;3.00;;;9.00;76.00;;;;;;5057880;28;20076;-78
2021/11/24 06:06:21;;;;;;;3.67;2.65;;;9.10;76.10;;;;;;5057026;28;20029;-77
2021/11/24 06:08:47;;;;;;;3.70;2.75;;;9.10;76.10;;;;;;5056781;28;20035;-78
2021/11/24 06:11:12;;;;;;;3.88;2.88;;;9.00;76.70;;;;;;5057371;28;20104;-78
2021/11/24 06:13:38;;;;;;;4.43;3.17;;;9.10;76.10;;;;;;5059133;28;20088;-78
2021/11/24 06:16:04;;;;;;;4.05;3.00;;;9.00;76.10;;;;;;5058218;28;20037;-78
2021/11/24 06:18:30;;;;;;;4.32;3.30;;;9.10;76.20;;;;;;5056354;28;20035;-78
2021/11/24 06:20:56;;;;;;;4.82;3.40;;;9.10;76.20;;;;;;5056260;28;20484;-78
2021/11/24 06:23:22;;;;;;;3.88;2.90;;;9.10;76.20;;;;;;5058673;28;20037;-78
2021/11/24 06:25:47;;;;;;;4.15;3.05;;;9.10;76.20;;;;;;5055518;28;20458;-78
2021/11/24 06:28:13;;;;;;;4.22;3.22;;;9.10;76.20;;;;;;5055256;28;20029;-78
2021/11/24 06:30:39;;;;;;;3.60;2.88;;;9.10;76.20;;;;;;5055340;28;20044;-78
2021/11/24 06:33:05;;;;;;;4.25;3.30;;;9.10;76.20;;;;;;5055269;28;20112;-77
2021/11/24 06:35:31;;;;;;;4.53;3.20;;;9.10;76.20;;;;;;5055508;28;20063;-77
2021/11/24 06:37:56;;;;;;;4.30;3.22;;;9.10;76.90;;;;;;5056414;28;20492;-78
2021/11/24 06:40:22;;;;;;;4.57;2.95;;;9.10;76.20;;;;;;5072417;28;20029;-78
2021/11/24 06:42:48;;;;;;;4.38;3.22;;;9.00;76.20;;;;;;5056034;28;20102;-78
2021/11/24 06:45:15;;;;;;;4.25;3.05;;;9.10;76.30;;;;;;5054762;28;20084;-77
2021/11/24 06:47:41;;;;;;;4.65;3.33;;;9.10;76.30;;;;;;5055577;28;20425;-78
2021/11/24 06:50:10;;;;;;;4.68;3.38;;;9.10;76.30;;;;;;5055528;28;20033;-78
2021/11/24 06:52:36;;;;;;;4.32;3.30;;;9.10;76.30;;;;;;5054174;28;20098;-77
2021/11/24 06:55:03;;;;;;;4.18;3.08;;;9.00;76.20;;;;;;5055710;28;20116;-78
2021/11/24 06:57:29;;;;;;;4.57;3.10;;;9.10;76.30;;;;;;5054664;28;20524;-79
2021/11/24 06:59:55;;;;;;;4.40;3.40;;;9.10;76.30;;;;;;5054298;28;20040;-78
2021/11/24 07:02:21;;;;;;;4.47;3.40;;;9.10;76.30;;;;;;5054319;28;20079;-79
2021/11/24 07:04:46;;;;;;;5.65;3.47;;;9.10;76.30;;;;;;5054784;28;20045;-78
2021/11/24 07:07:12;;;;;;;4.65;3.40;;;9.10;76.30;;;;;;5054340;28;20470;-79
2021/11/24 07:09:40;;;;;;;4.90;3.35;;;9.10;76.30;;;;;;5037696;28;20536;-79
2021/11/24 07:12:07;;;;;;;5.07;3.75;;;9.10;76.30;;;;;;5054371;28;20032;-78
2021/11/24 07:14:33;;;;;;;4.68;3.33;;;9.10;76.30;;;;;;5053950;28;20048;-79
2021/11/24 07:16:59;;;;;;;5.00;3.55;;;9.10;76.30;;;;;;5054132;28;20028;-78
2021/11/24 07:19:26;;;;;;;4.95;3.15;;;9.10;76.40;;;;;;5071365;28;20033;-80
2021/11/24 07:21:52;;;;;;;4.55;3.33;;;9.10;76.40;;;;;;5055217;28;20420;-79
2021/11/24 07:24:19;;;;;;;4.70;3.30;;;9.10;76.40;;;;;;5055684;28;20037;-78
2021/11/24 07:26:45;;;;;;;5.30;3.50;;;9.10;76.40;;;;;;5055670;28;20073;-78
2021/11/24 07:29:12;;;;;;;4.35;3.08;;;9.00;76.30;;;;;;5071062;28;20032;-78
2021/11/24 07:31:39;;;;;;;4.50;3.15;;;9.10;76.40;;;;;;5055061;28;20100;-77
2021/11/24 07:34:05;;;;;;;4.53;3.45;;;9.10;76.70;;;;;;5054010;28;20037;-77
2021/11/24 07:36:31;;;;;;;4.53;3.30;;;9.10;76.40;;;;;;5053559;28;20079;-77
2021/11/24 07:38:57;;;;;;;4.90;3.55;;;9.10;76.40;;;;;;5053673;28;20033;-79
2021/11/24 07:41:23;;;;;;;4.78;3.45;;;9.10;76.40;;;;;;5053657;28;20478;-77
2021/11/24 07:43:49;;;;;;;4.57;3.03;;;9.10;76.40;;;;;;5053481;28;20037;-79
2021/11/24 07:46:16;;;;;;;5.13;3.55;;;9.10;76.40;;;;;;5054592;28;20114;-78
2021/11/24 07:48:42;;;;;;;4.60;3.20;;;9.10;76.50;;;;;;5053105;28;20483;-77
2021/11/24 07:51:11;;;;;;;4.78;3.38;;;9.10;76.40;;;;;;5070548;28;20108;-76
2021/11/24 07:53:37;;;;;;;4.32;3.28;;;9.10;76.40;;;;;;5037364;28;20037;-77
2021/11/24 07:56:02;;;;;;;4.32;3.20;;;9.10;76.40;;;;;;5053612;28;20036;-77
2021/11/24 07:58:28;;;;;;;4.65;3.35;;;9.10;76.40;;;;;;5053686;28;20062;-80
2021/11/24 08:00:55;;;;;;;4.65;3.40;;;9.10;76.40;;;;;;5052958;28;20040;-78
2021/11/24 08:03:21;;;;;;;4.28;3.33;;;9.10;76.40;;;;;;5070061;28;20036;-79
2021/11/24 08:05:47;;;;;;;4.43;3.25;;;9.10;77.00;;;;;;5053949;28;20033;-78
2021/11/24 08:08:13;;;;;;;4.35;3.15;;;9.10;76.40;;;;;;5070085;28;20029;-78
2021/11/24 08:10:39;;;;;;;5.00;3.25;;;9.10;76.40;;;;;;5054811;28;20021;-78
2021/11/24 08:13:04;;;;;;;4.97;3.30;;;9.10;76.50;;;;;;5053254;28;20485;-78
2021/11/24 08:15:30;;;;;;;4.78;3.55;;;9.10;76.50;;;;;;5054451;28;20037;-80
2021/11/24 08:17:57;;;;;;;4.07;2.97;;;9.10;76.50;;;;;;5052703;28;20029;-78
2021/11/24 08:20:23;;;;;;;4.60;3.25;;;9.10;76.50;;;;;;5053239;28;20033;-78
2021/11/24 08:22:49;;;;;;;4.05;2.88;;;9.10;76.50;;;;;;5053183;28;20377;-79
2021/11/24 08:25:15;;;;;;;5.13;3.40;;;9.10;76.50;;;;;;5052986;28;20128;-79
2021/11/24 08:27:41;;;;;;;4.15;3.10;;;9.10;76.50;;;;;;5052946;28;20117;-79
2021/11/24 08:30:08;;;;;;;4.45;3.30;;;9.10;76.50;;;;;;5053118;28;20045;-79
2021/11/24 08:32:35;;;;;;;4.32;3.15;;;9.10;76.50;;;;;;5053051;28;20489;-78
2021/11/24 08:35:01;;;;;;;4.53;3.20;;;9.10;76.50;;;;;;5052778;28;20131;-79
2021/11/24 08:37:27;;;;;;;4.90;3.15;;;9.10;76.50;;;;;;5069336;28;20469;-78
2021/11/24 08:39:52;;;;;;;4.32;2.97;;;9.10;76.50;;;;;;5052635;28;20049;-78
2021/11/24 08:42:18;;;;;;;4.40;3.22;;;9.10;76.50;;;;;;5035944;28;20547;-78
2021/11/24 08:44:44;;;;;;;4.22;2.83;;;9.10;76.50;;;;;;5052985;28;20087;-78
2021/11/24 08:47:10;;;;;;;4.63;3.28;;;9.10;76.50;;;;;;5069259;28;20021;-79
2021/11/24 08:49:36;;;;;;;4.45;3.08;;;9.10;76.50;;;;;;5052339;28;20029;-79
2021/11/24 08:52:02;;;;;;;4.70;3.40;;;9.10;76.50;;;;;;5053334;28;20032;-78
2021/11/24 08:54:28;;;;;;;4.25;3.00;;;9.10;76.50;;;;;;5053158;28;20020;-78
2021/11/24 08:56:54;;;;;;;4.43;3.20;;;9.10;76.50;;;;;;5071346;28;20084;-78
2021/11/24 08:59:20;;;;;;;4.78;3.00;;;9.10;76.50;;;;;;5054641;28;20116;-79
2021/11/24 09:01:46;;;;;;;4.50;3.20;;;9.10;76.50;;;;;;5055847;28;20418;-78
2021/11/24 09:04:11;;;;;;;4.28;2.80;;;9.20;76.60;;;;;;5053846;28;20425;-78
2021/11/24 09:06:37;;;;;;;4.22;3.13;;;9.20;76.60;;;;;;5052230;28;20037;-78
2021/11/24 09:09:05;;;;;;;4.68;3.20;;;9.20;76.60;;;;;;5036286;28;20052;-79
2021/11/24 09:11:31;;;;;;;4.13;3.17;;;9.20;76.60;;;;;;5052261;28;20094;-79
2021/11/24 09:13:57;;;;;;;4.65;3.10;;;9.20;76.60;;;;;;5052092;28;20032;-80
2021/11/24 09:16:23;;;;;;;4.35;3.17;;;9.20;76.70;;;;;;5068840;28;20025;-78
2021/11/24 09:18:48;;;;;;;4.32;3.10;;;9.20;76.60;;;;;;5052826;28;20339;-78
2021/11/24 09:21:14;;;;;;;4.38;3.13;;;9.20;76.70;;;;;;5069229;28;20036;-79
2021/11/24 09:23:43;;;;;;;4.43;3.10;;;9.30;76.70;;;;;;5052172;28;20139;-79
2021/11/24 09:28:42;;;;;;;4.50;3.10;;;9.30;76.70;;;;;;5052980;28;20099;-79
2021/11/24 09:31:08;;;;;;;4.05;3.08;;;9.30;76.70;;;;;;5051920;28;20030;-79
2021/11/24 09:33:34;;;;;;;3.95;3.03;;;9.30;76.70;;;;;;5054090;28;20028;-79
2021/11/24 09:36:02;;;;;;;4.60;3.40;;;9.30;76.70;;;;;;5051815;28;20071;-79
2021/11/24 09:38:28;;;;;;;4.45;3.17;;;9.30;76.70;;;;;;5052182;28;20029;-78
2021/11/24 09:40:55;;;;;;;4.20;3.05;;;9.30;76.70;;;;;;5052002;28;20036;-81
2021/11/24 09:43:22;;;;;;;4.75;3.50;;;9.40;76.80;;;;;;5051876;28;20532;-81
2021/11/24 09:45:48;;;;;;;4.45;3.25;;;9.40;76.80;;;;;;5052117;28;20025;-78
2021/11/24 09:48:17;;;;;;;3.83;2.90;;;9.40;76.80;;;;;;5051912;28;20032;-79
2021/11/24 09:50:47;;;;;;;4.20;3.00;;;9.40;76.80;;;;;;5068998;28;20446;-80
2021/11/24 09:53:14;;;;;;;4.45;3.10;;;9.40;76.80;;;;;;5052864;28;20025;-79
2021/11/24 09:55:41;;;;;;;4.18;2.90;;;9.40;76.80;;;;;;5068746;28;20120;-80
2021/11/24 09:58:09;;;;;;;4.93;3.67;;;9.40;76.80;;;;;;5051855;28;20025;-79
2021/11/24 10:00:38;;;;;;;3.92;3.00;;;9.50;76.80;;;;;;5053100;28;20465;-79
2021/11/24 10:03:04;;;;;;;3.83;2.92;;;9.50;76.80;;;;;;5053300;28;20457;-79
2021/11/24 10:05:33;;;;;;;4.22;3.20;;;9.50;76.80;;;;;;5035209;28;20037;-79
2021/11/24 10:07:59;;;;;;;4.00;3.10;;;9.50;76.80;;;;;;5052210;28;20025;-81
2021/11/24 10:10:26;;;;;;;4.60;3.28;;;9.50;76.80;;;;;;5052572;28;20159;-78
2021/11/24 10:12:52;;;;;;;4.65;3.35;;;9.60;76.90;;;;;;5055721;28;20033;-79
2021/11/24 10:15:41;;;;;;;4.38;3.15;;;9.50;76.80;;;;;;5039580;28;20037;-79
2021/11/24 10:18:35;;;;;;;4.60;3.30;;;9.60;77.00;;;;;;5055706;28;20495;-80
2021/11/24 10:21:04;;;;;;;4.15;3.08;;;9.60;77.00;;;;;;5053232;28;20125;-79
2021/11/24 10:23:42;;;;;;;4.50;3.22;;;9.60;76.80;;;;;;5057279;28;20029;-80
2021/11/24 10:26:32;;;;;;;4.35;3.15;;;9.60;76.80;;;;;;5072208;28;20060;-79
2021/11/24 10:29:02;;;;;;;3.83;2.75;;;9.60;77.40;;;;;;5055081;28;20028;-80
2021/11/24 10:31:39;;;;;;;4.85;3.22;;;9.70;76.80;;;;;;5055867;28;20108;-79
2021/11/24 10:34:16;;;;;;;4.28;3.08;;;9.70;76.90;;;;;;5055208;28;20033;-80
2021/11/24 10:37:01;;;;;;;4.75;3.22;;;9.70;76.80;;;;;;5055009;28;20053;-79
2021/11/24 10:39:31;;;;;;;3.88;3.00;;;9.70;76.80;;;;;;5055109;28;20037;-80
2021/11/24 10:42:20;;;;;;;4.00;3.22;;;9.80;76.80;;;;;;5055511;28;20082;-79
2021/11/24 10:44:55;;;;;;;3.83;2.83;;;9.80;76.80;;;;;;5055225;28;20052;-79
2021/11/24 10:47:23;;;;;;;4.00;2.88;;;9.80;76.70;;;;;;5055027;28;20025;-78
2021/11/24 10:49:55;;;;;;;4.00;2.88;;;9.80;76.70;;;;;;5055398;28;20044;-80
2021/11/24 10:52:26;;;;;;;3.75;2.60;;;9.80;76.70;;;;;;5071789;28;20029;-80
2021/11/24 10:54:59;;;;;;;4.68;3.28;;;9.90;76.70;;;;;;5055838;28;20408;-80
2021/11/24 10:57:26;;;;;;;4.25;3.10;;;9.90;76.80;;;;;;5054748;28;20060;-81
2021/11/24 11:00:04;;;;;;;3.50;2.50;;;9.90;76.70;;;;;;5037983;28;20087;-80
2021/11/24 11:02:39;;;;;;;4.65;2.83;;;9.90;76.70;;;;;;5054445;28;20028;-79
2021/11/24 11:05:15;;;;;;;3.75;2.70;;;9.90;76.70;;;;;;5055134;28;20615;-80
2021/11/24 11:07:50;;;;;;;3.72;2.70;;;9.90;76.70;;;;;;5054581;28;20029;-79
2021/11/24 11:10:28;;;;;;;3.55;2.60;;;10.00;76.70;;;;;;5054936;28;20068;-80
2021/11/24 11:12:56;;;;;;;3.58;2.58;;;10.00;76.60;;;;;;5056065;28;20028;-78
2021/11/24 11:15:32;;;;;;;3.88;2.75;;;10.00;76.60;;;;;;5056037;28;20036;-79
2021/11/24 11:18:15;;;;;;;3.88;2.83;;;10.00;76.70;;;;;;5054264;28;20127;-80
2021/11/24 11:21:02;;;;;;;4.10;3.08;;;10.00;76.70;;;;;;5070805;28;20051;-78
2021/11/24 11:23:39;;;;;;;3.78;2.78;;;10.10;76.60;;;;;;5070062;28;20086;-77
2021/11/24 11:26:09;;;;;;;3.45;2.65;;;10.10;76.60;;;;;;5054332;28;20090;-79
2021/11/24 11:28:42;;;;;;;3.75;2.65;;;10.10;76.50;;;;;;5070761;28;20090;-78
2021/11/24 11:31:10;;;;;;;4.22;2.80;;;10.10;76.60;;;;;;5054870;28;20041;-78
2021/11/24 11:33:40;;;;;;;3.83;2.63;;;10.10;76.50;;;;;;5054826;28;20096;-78
2021/11/24 11:36:08;;;;;;;4.57;2.95;;;10.10;76.50;;;;;;5053935;28;20098;-78
2021/11/24 11:38:44;;;;;;;4.38;2.67;;;10.20;76.50;;;;;;5054079;28;20527;-79
2021/11/24 11:41:10;;;;;;;3.85;2.65;;;10.20;76.60;;;;;;5054713;28;20461;-78
2021/11/24 11:43:36;;;;;;;4.18;3.00;;;10.20;76.40;;;;;;5053319;28;20032;-78
2021/11/24 11:46:22;;;;;;;4.10;3.08;;;10.20;76.40;;;;;;5070070;28;20469;-78
2021/11/24 11:48:49;;;;;;;4.28;3.05;;;10.20;76.50;;;;;;5053610;28;20182;-78
2021/11/24 11:51:25;;;;;;;4.13;3.05;;;10.20;76.40;;;;;;5053782;28;20399;-78
2021/11/24 11:53:54;;;;;;;3.60;2.58;;;10.20;76.40;;;;;;5054848;28;20106;-78
2021/11/24 11:56:28;;;;;;;3.67;2.60;;;10.30;76.40;;;;;;5053627;28;20021;-78
2021/11/24 11:59:00;;;;;;;3.38;2.40;;;10.30;76.40;;;;;;5054099;28;20120;-78
2021/11/24 12:01:28;;;;;;;4.28;2.65;;;10.30;76.40;;;;;;5054001;28;20187;-77
2021/11/24 12:03:55;;;;;;;3.40;2.53;;;10.30;76.30;;;;;;5054453;28;20105;-78
2021/11/24 12:06:26;;;;;;;3.97;2.63;;;10.30;76.30;;;;;;5069973;28;20033;-79
2021/11/24 12:09:11;;;;;;;3.90;2.70;;;10.40;76.40;;;;;;5053441;28;20112;-81
2021/11/24 12:12:12;;;;;;;;;;;10.40;76.50;;;;;;5053960;28;20112;-79
2021/11/24 12:15:01;;;;;;;3.08;2.25;;;10.40;76.20;;;;;;5053297;28;20022;-78
2021/11/24 12:20:26;;;;;;;3.60;2.58;;;10.40;76.30;;;;;;5053785;28;20354;-81
2021/11/24 12:22:55;;;;;;;4.20;2.75;;;10.40;76.40;;;;;;5047491;28;20045;-80
2021/11/24 12:25:25;;;;;;;4.35;2.95;;;10.40;76.20;;;;;;5036355;28;20037;-78
2021/11/24 12:27:53;;;;;;;4.20;3.03;;;10.40;76.20;;;;;;5053749;28;20029;-78
2021/11/24 12:33:01;;;;;;;5.05;3.13;;;10.50;76.40;;;;;;5052660;28;20036;-79
2021/11/24 12:35:27;;;;;;;4.07;3.05;;;10.50;76.20;;;;;;5052506;28;20500;-79
2021/11/24 12:37:58;;;;;;;4.55;3.25;;;10.50;76.10;;;;;;5052588;28;20045;-79
2021/11/24 12:40:28;;;;;;;4.40;3.05;;;10.50;76.10;;;;;;5052906;28;20135;-79
2021/11/24 12:42:58;;;;;;;5.65;3.55;;;10.50;76.10;;;;;;5069515;28;20033;-81
2021/11/24 12:45:24;;;;;;;4.65;3.00;;;10.60;76.10;;;;;;5054433;28;20048;-79
2021/11/24 12:48:02;;;;;;;5.00;3.33;;;10.60;76.00;;;;;;5052650;28;20025;-80
2021/11/24 12:50:29;;;;;;;4.32;3.25;;;10.60;76.10;;;;;;5052876;28;20457;-79
2021/11/24 12:53:00;;;;;;;5.65;3.55;;;10.60;76.00;;;;;;5052117;28;20079;-79
2021/11/24 12:55:27;;;;;;;5.82;3.65;;;10.70;76.00;;;;;;5052689;28;20044;-79
2021/11/24 12:57:53;;;;;;;5.95;3.85;;;10.70;76.00;;;;;;5053618;28;20078;-78
2021/11/24 13:00:27;;;;;;;4.78;3.22;;;10.70;75.90;;;;;;5052236;28;20485;-78
2021/11/24 13:02:53;;;;;;;5.15;3.30;;;10.70;76.00;;;;;;5052504;28;20024;-77
2021/11/24 13:05:19;;;;;;;5.32;3.50;;;10.70;75.90;;;;;;5052361;28;20029;-79
2021/11/24 13:07:56;;;;;;;4.95;3.45;;;10.70;75.90;;;;;;5052236;28;20154;-78